Time;durP1;ratioP1;P1;durP2;ratioP2;P2;SDS_P1;SDS_P2;PMS_P1;PMS_P2;Temp;Humidity;BMP_temperature;BMP_pressure;BME280_temperature;BME280_humidity;BME280_pressure;Samples;Min_cycle;Max_cycle;Signal;HPM_P1;HPM_P2
2022/06/24 00:00:15;;;;;;;4.08;3.77;;;;;;;15.56;86.21;100016.50;1789551;80;20904;-86
2022/06/24 00:02:49;;;;;;;4.90;4.30;;;;;;;15.56;85.91;100019.14;1789743;80;20887;-86
2022/06/24 00:05:20;;;;;;;4.45;4.08;;;;;;;15.53;85.73;100018.94;1789761;79;21140;-86
2022/06/24 00:07:51;;;;;;;5.00;4.47;;;;;;;15.50;85.53;100016.59;1789539;79;20868;-87
2022/06/24 00:10:21;;;;;;;4.47;4.17;;;;;;;15.45;85.72;100017.50;1789497;79;21342;-86
2022/06/24 00:12:51;;;;;;;4.80;4.50;;;;;;;15.45;85.02;100022.78;1790577;79;20962;-85
2022/06/24 00:15:33;;;;;;;4.55;4.15;;;;;;;15.45;85.02;100022.78;1791616;79;20876;-84
2022/06/24 00:18:16;;;;;;;4.85;4.37;;;;;;;15.44;85.22;100018.45;1789456;80;21155;-85
2022/06/24 00:20:44;;;;;;;4.65;4.22;;;;;;;15.42;85.14;100028.32;1789019;80;20980;-83
2022/06/24 00:23:12;;;;;;;6.60;4.67;;;;;;;15.41;85.05;100031.95;1789690;79;21085;-85
2022/06/24 00:25:38;;;;;;;14.90;5.20;;;;;;;15.40;85.15;100033.41;1789589;79;20896;-85
2022/06/24 00:28:09;;;;;;;7.60;4.58;;;;;;;15.40;85.16;100030.77;1789486;80;21472;-85
2022/06/24 00:30:44;;;;;;;4.83;4.42;;;;;;;15.40;85.09;100034.23;1789450;80;21250;-86
2022/06/24 00:33:23;;;;;;;4.55;4.15;;;;;;;15.38;85.20;100025.60;1786006;79;20864;-86
2022/06/24 00:35:50;;;;;;;4.35;4.05;;;;;;;15.41;85.18;100029.31;1788567;80;20899;-86
2022/06/24 00:38:30;;;;;;;4.85;4.40;;;;;;;15.43;85.14;100032.66;1789344;79;21460;-86
2022/06/24 00:41:06;;;;;;;5.10;4.60;;;;;;;15.44;85.26;100032.98;1789688;79;20844;-85
2022/06/24 00:43:41;;;;;;;4.47;4.05;;;;;;;15.46;85.22;100024.93;1789416;79;21941;-86
2022/06/24 00:46:19;;;;;;;5.05;4.53;;;;;;;15.49;85.17;100029.92;1789653;80;20924;-85
2022/06/24 00:48:49;;;;;;;7.03;5.45;;;;;;;15.49;85.17;100029.92;1759032;80;20962;-85
2022/06/24 00:51:17;;;;;;;5.72;5.33;;;;;;;15.51;86.26;100030.63;1789327;78;21080;-85
2022/06/24 00:53:50;;;;;;;5.42;4.92;;;;;;;15.55;85.87;100027.56;1726922;83;20882;-85
2022/06/24 00:56:19;;;;;;;4.92;4.60;;;;;;;15.55;85.87;100027.56;1755438;81;21240;-85
2022/06/24 00:58:54;;;;;;;6.15;5.55;;;;;;;15.61;86.25;100034.61;1755415;81;20988;-85
2022/06/24 01:01:36;;;;;;;7.00;6.30;;;;;;;15.64;86.32;100021.11;1729720;81;20980;-85
2022/06/24 01:04:07;;;;;;;8.53;5.62;;;;;;;15.69;86.83;100016.23;1755785;81;20935;-86
2022/06/24 01:06:34;;;;;;;6.03;5.50;;;;;;;15.69;86.83;100016.23;1755739;81;20909;-84
2022/06/24 01:09:01;;;;;;;6.05;5.55;;;;;;;15.78;87.07;100012.77;1755586;81;21889;-84
2022/06/24 01:11:40;;;;;;;6.65;5.00;;;;;;;15.78;87.07;100012.77;1755393;81;20960;-85
2022/06/24 01:14:06;;;;;;;7.37;6.42;;;;;;;15.82;86.85;100012.02;1755329;81;21012;-85
2022/06/24 01:16:34;;;;;;;5.95;5.47;;;;;;;15.83;86.87;100007.91;1755375;81;20937;-86
2022/06/24 01:19:09;;;;;;;6.83;6.22;;;;;;;15.86;86.71;100005.47;1756747;81;20881;-85
2022/06/24 01:21:41;;;;;;;5.85;5.40;;;;;;;15.85;86.66;100007.75;1758506;81;21261;-84
2022/06/24 01:24:18;;;;;;;6.45;5.95;;;;;;;15.86;86.75;100016.05;1758378;81;20905;-85
2022/06/24 01:26:52;;;;;;;6.80;6.15;;;;;;;15.85;86.89;100011.25;1757218;79;20957;-85
2022/06/24 01:29:19;;;;;;;6.53;5.65;;;;;;;15.85;86.89;100011.25;1757786;80;20968;-86
2022/06/24 01:31:49;;;;;;;7.17;6.05;;;;;;;15.86;86.81;100007.63;1757780;80;20999;-85
2022/06/24 01:34:18;;;;;;;8.68;5.72;;;;;;;15.84;86.48;100005.60;1757617;80;21124;-85
2022/06/24 01:36:45;;;;;;;5.22;4.83;;;;;;;15.81;86.26;100019.12;1757466;79;20995;-86
2022/06/24 01:39:11;;;;;;;6.25;5.30;;;;;;;15.78;86.34;100019.38;1757740;80;20843;-86
2022/06/24 01:41:38;;;;;;;5.40;4.90;;;;;;;15.75;86.55;100008.60;1756010;81;21073;-86
2022/06/24 01:44:05;;;;;;;6.60;4.97;;;;;;;15.75;86.47;100009.92;1756018;81;20913;-87
2022/06/24 01:46:31;;;;;;;6.05;5.47;;;;;;;15.78;86.67;100017.23;1757817;81;21126;-85
2022/06/24 01:48:58;;;;;;;6.08;5.67;;;;;;;15.78;86.86;100027.80;1756573;81;20984;-87
2022/06/24 01:51:27;;;;;;;6.03;5.40;;;;;;;15.79;87.18;100034.28;1756069;81;20933;-86
2022/06/24 01:53:53;;;;;;;6.08;5.65;;;;;;;15.82;87.40;100033.99;1755240;81;21311;-86
2022/06/24 01:56:20;;;;;;;6.60;6.00;;;;;;;15.84;87.61;100030.72;1756234;81;20897;-86
2022/06/24 01:58:47;;;;;;;6.97;6.30;;;;;;;15.89;87.85;100028.97;1755883;81;21142;-86
2022/06/24 02:01:13;;;;;;;8.25;6.30;;;;;;;15.94;87.92;100026.73;1755778;81;20878;-86
2022/06/24 02:03:39;;;;;;;7.70;6.30;;;;;;;15.97;87.81;100030.44;1755508;81;20945;-86
2022/06/24 02:06:10;;;;;;;8.20;7.15;;;;;;;16.02;87.78;100027.37;1755438;81;21098;-86
2022/06/24 02:08:38;;;;;;;6.72;6.15;;;;;;;16.05;87.81;100029.25;1755497;81;20988;-87
2022/06/24 02:13:51;;;;;;;6.90;6.35;;;;;;;16.16;88.05;100037.48;1755412;81;21446;-86
2022/06/24 02:16:18;;;;;;;7.28;6.37;;;;;;;16.22;87.98;100030.31;1755534;81;21458;-86
2022/06/24 02:18:46;;;;;;;7.28;6.65;;;;;;;16.28;87.96;100028.92;1755554;81;21431;-87
2022/06/24 02:21:16;;;;;;;11.60;7.37;;;;;;;16.32;87.68;100023.19;1755657;81;20901;-86
2022/06/24 02:23:44;;;;;;;8.00;7.30;;;;;;;16.38;87.91;100029.70;1755574;81;21260;-87
2022/06/24 02:26:11;;;;;;;7.55;6.97;;;;;;;16.41;87.88;100036.05;1755535;81;20965;-87
2022/06/24 02:28:38;;;;;;;7.05;6.12;;;;;;;16.47;87.85;100038.09;1755615;81;20890;-87
2022/06/24 02:31:06;;;;;;;7.10;6.47;;;;;;;16.51;87.84;100030.72;1756000;81;20933;-84
2022/06/24 02:33:34;;;;;;;7.97;6.83;;;;;;;16.55;87.72;100032.09;1755581;81;21397;-87
2022/06/24 02:36:01;;;;;;;6.55;6.00;;;;;;;16.59;87.59;100034.80;1755712;81;21960;-87
2022/06/24 02:38:29;;;;;;;7.95;7.15;;;;;;;16.63;87.59;100039.30;1755442;81;20921;-85
2022/06/24 02:40:58;;;;;;;8.53;6.75;;;;;;;16.66;87.53;100043.00;1755150;80;20873;-86
2022/06/24 02:43:28;;;;;;;8.45;7.75;;;;;;;16.70;87.40;100038.59;1755722;81;21398;-86
2022/06/24 02:45:58;;;;;;;8.98;7.70;;;;;;;16.74;87.39;100040.44;1755593;81;20893;-87
2022/06/24 02:48:25;;;;;;;8.60;7.72;;;;;;;16.77;87.19;100031.72;1755363;81;21198;-87
2022/06/24 02:50:53;;;;;;;10.32;8.15;;;;;;;16.83;87.06;100034.78;1755309;81;21671;-87
2022/06/24 02:53:20;;;;;;;8.85;8.05;;;;;;;16.85;87.02;100024.41;1758869;81;20936;-87
2022/06/24 02:55:51;;;;;;;10.48;7.78;;;;;;;16.88;86.95;100023.28;1760878;81;21024;-86
2022/06/24 02:58:17;;;;;;;7.72;6.97;;;;;;;16.92;87.23;100028.14;1760649;81;20932;-87
2022/06/24 03:00:44;;;;;;;8.10;7.28;;;;;;;16.96;86.97;100029.98;1760410;81;21801;-86
2022/06/24 03:03:12;;;;;;;10.28;9.40;;;;;;;16.98;86.95;100044.77;1760452;81;20972;-86
2022/06/24 03:06:40;;;;;;;16.25;13.58;;;;;;;17.06;86.83;100048.48;1854980;77;23211;-85
2022/06/24 03:09:07;;;;;;;15.45;13.95;;;;;;;17.03;87.10;100046.11;1822509;78;21428;-84
2022/06/24 03:11:34;;;;;;;15.80;14.20;;;;;;;17.02;87.29;100046.61;1822931;78;21300;-86
2022/06/24 03:14:03;;;;;;;15.48;13.95;;;;;;;17.04;87.38;100046.48;1723327;83;20915;-86
2022/06/24 03:16:30;;;;;;;12.55;11.38;;;;;;;17.03;87.47;100039.49;1723266;83;20950;-88
2022/06/24 03:18:57;;;;;;;14.55;13.05;;;;;;;17.03;87.56;100038.16;1722781;83;21551;-86
2022/06/24 03:21:23;;;;;;;17.20;13.78;;;;;;;17.05;87.90;100038.39;1722696;83;21472;-87
2022/06/24 03:23:50;;;;;;;15.25;13.68;;;;;;;17.08;87.92;100043.87;1722600;82;21891;-86
2022/06/24 03:26:16;;;;;;;15.63;14.00;;;;;;;17.12;88.07;100042.11;1722669;83;21046;-87
2022/06/24 03:28:43;;;;;;;16.62;14.87;;;;;;;17.19;88.05;100042.34;1722781;83;20994;-87
2022/06/24 03:31:14;;;;;;;16.77;14.55;;;;;;;17.26;87.77;100032.80;1722673;83;21033;-86
2022/06/24 03:33:41;;;;;;;15.40;13.90;;;;;;;17.26;87.77;100032.80;1722731;82;21464;-87
2022/06/24 03:36:10;;;;;;;13.68;12.40;;;;;;;17.29;87.48;100037.80;1723046;82;21508;-87
2022/06/24 03:38:36;;;;;;;16.07;13.93;;;;;;;17.28;87.20;100037.47;1722803;81;20962;-86
2022/06/24 03:41:03;;;;;;;14.28;13.03;;;;;;;17.30;87.08;100039.98;1723290;82;20978;-87
2022/06/24 03:43:32;;;;;;;15.08;13.58;;;;;;;17.31;87.19;100035.83;1723245;82;20935;-86
2022/06/24 03:46:04;;;;;;;14.93;12.85;;;;;;;17.30;86.32;100035.50;1809588;78;21018;-87
2022/06/24 03:48:30;;;;;;;15.43;13.83;;;;;;;17.30;86.32;100035.50;1822632;78;21759;-86
2022/06/24 03:50:58;;;;;;;13.30;12.07;;;;;;;17.28;86.53;100040.12;1822545;78;20922;-86
2022/06/24 03:53:26;;;;;;;14.53;11.93;;;;;;;17.29;86.65;100059.00;1822610;78;20902;-86
2022/06/24 03:55:52;;;;;;;14.43;12.73;;;;;;;17.31;86.61;100055.70;1822918;78;21378;-87
2022/06/24 03:58:19;;;;;;;15.05;13.45;;;;;;;17.36;86.61;100059.23;1822600;78;20919;-87
2022/06/24 04:00:47;;;;;;;14.13;12.80;;;;;;;17.39;86.24;100059.78;1822530;78;21282;-86
2022/06/24 04:03:13;;;;;;;14.70;13.43;;;;;;;17.40;86.04;100050.00;1823344;78;20884;-86
2022/06/24 04:05:39;;;;;;;15.32;13.78;;;;;;;17.38;85.95;100061.24;1822561;78;20909;-84
2022/06/24 04:08:07;;;;;;;15.55;14.05;;;;;;;17.38;85.86;100058.59;1822718;78;20971;-88
2022/06/24 04:10:37;;;;;;;15.35;13.85;;;;;;;17.40;85.81;100063.25;1822631;78;20875;-87
2022/06/24 04:13:03;;;;;;;17.15;12.73;;;;;;;17.42;85.97;100060.47;1791558;78;21217;-87
2022/06/24 04:15:30;;;;;;;16.70;13.60;;;;;;;17.47;86.13;100068.30;1822544;78;20844;-87
2022/06/24 04:17:56;;;;;;;15.40;13.93;;;;;;;17.53;86.14;100074.33;1822015;78;20872;-88
2022/06/24 04:20:23;;;;;;;14.05;12.75;;;;;;;17.62;86.27;100073.92;1822139;78;20927;-88
2022/06/24 04:22:49;;;;;;;12.75;11.55;;;;;;;17.68;85.91;100066.69;1821988;78;20914;-86
2022/06/24 04:25:16;;;;;;;13.03;11.83;;;;;;;17.74;85.35;100063.44;1822162;78;21120;-86
2022/06/24 04:27:44;;;;;;;13.40;12.10;;;;;;;17.77;84.99;100061.80;1822074;78;20884;-87
2022/06/24 04:30:11;;;;;;;13.00;11.53;;;;;;;17.81;84.71;100061.01;1823397;78;20876;-87
2022/06/24 04:32:38;;;;;;;20.27;12.73;;;;;;;17.85;84.43;100056.24;1825154;78;20919;-86
2022/06/24 04:35:06;;;;;;;12.93;11.57;;;;;;;17.88;84.22;100060.77;1824462;78;20888;-88
2022/06/24 04:37:37;;;;;;;13.93;12.63;;;;;;;17.91;83.90;100061.77;1824692;77;21116;-87
2022/06/24 04:40:06;;;;;;;13.18;11.85;;;;;;;17.95;83.78;100056.50;1823169;77;21072;-86
2022/06/24 04:42:33;;;;;;;12.63;11.43;;;;;;;18.00;83.76;100061.34;1822602;78;21346;-87
2022/06/24 04:45:01;;;;;;;15.38;12.58;;;;;;;18.06;83.54;100075.83;1821871;78;21381;-85
2022/06/24 04:47:27;;;;;;;13.32;12.00;;;;;;;18.10;83.31;100078.52;1822215;78;20896;-86
2022/06/24 04:49:54;;;;;;;14.10;12.80;;;;;;;18.15;83.19;100082.86;1822026;78;21158;-85
2022/06/24 04:52:21;;;;;;;14.63;13.20;;;;;;;18.20;83.07;100089.36;1822239;78;20840;-86
2022/06/24 04:54:48;;;;;;;13.80;12.37;;;;;;;18.26;82.67;100094.56;1822006;78;20911;-85
2022/06/24 04:57:15;;;;;;;13.93;12.53;;;;;;;18.30;82.33;100098.58;1821823;78;20954;-88
2022/06/24 04:59:41;;;;;;;13.58;12.28;;;;;;;18.35;82.01;100092.30;1822184;78;20876;-87
2022/06/24 05:02:08;;;;;;;13.08;11.80;;;;;;;18.43;82.25;100083.53;1822353;78;21885;-88
2022/06/24 05:04:36;;;;;;;14.47;13.00;;;;;;;18.53;82.15;100087.44;1821996;78;21010;-87
2022/06/24 05:07:03;;;;;;;13.58;12.28;;;;;;;18.65;81.76;100083.51;1821917;78;20852;-87
2022/06/24 05:09:30;;;;;;;10.88;9.98;;;;;;;18.75;81.47;100086.89;1821929;78;21386;-88
2022/06/24 05:11:56;;;;;;;13.08;11.53;;;;;;;18.87;81.05;100091.45;1822362;78;20884;-87
2022/06/24 05:14:23;;;;;;;13.05;11.85;;;;;;;18.98;80.87;100098.32;1823292;78;21312;-83
2022/06/24 05:16:49;;;;;;;14.95;12.07;;;;;;;19.10;80.44;100092.21;1824094;78;21441;-86
2022/06/24 05:19:16;;;;;;;15.23;12.43;;;;;;;19.21;80.29;100084.80;1823333;78;20951;-88
2022/06/24 05:21:42;;;;;;;13.80;12.47;;;;;;;19.34;79.63;100087.48;1822119;78;20954;-88
2022/06/24 05:24:09;;;;;;;13.80;12.53;;;;;;;19.45;79.14;100086.70;1822728;78;20912;-88
2022/06/24 05:26:35;;;;;;;13.18;11.90;;;;;;;19.53;78.74;100075.73;1822052;78;21849;-88
2022/06/24 05:29:03;;;;;;;13.95;12.53;;;;;;;19.60;78.29;100075.41;1822205;78;21357;-89
2022/06/24 05:31:30;;;;;;;15.63;13.13;;;;;;;19.65;78.06;100078.41;1822398;78;21345;-87
2022/06/24 05:33:57;;;;;;;13.80;12.45;;;;;;;19.66;77.55;100081.41;1822400;78;21433;-88
2022/06/24 05:36:23;;;;;;;13.28;11.97;;;;;;;19.64;77.33;100080.23;1821909;78;20840;-86
2022/06/24 05:38:50;;;;;;;13.55;12.00;;;;;;;19.65;77.47;100073.94;1822182;78;21186;-90
2022/06/24 05:41:17;;;;;;;13.62;12.20;;;;;;;19.68;77.59;100067.45;1821860;78;20840;-87
2022/06/24 05:43:44;;;;;;;14.23;12.73;;;;;;;19.72;77.67;100074.14;1822144;78;20971;-88
2022/06/24 05:46:11;;;;;;;17.20;12.90;;;;;;;19.75;77.73;100076.97;1821892;78;20892;-88
2022/06/24 05:48:38;;;;;;;15.13;12.53;;;;;;;19.79;77.55;100085.78;1822115;78;20946;-86
2022/06/24 05:51:12;;;;;;;13.25;11.88;;;;;;;19.78;77.33;100089.92;1822155;78;21306;-87
2022/06/24 05:56:24;;;;;;;11.93;10.70;;;;;;;19.75;77.66;100085.77;1823296;78;21294;-90
2022/06/24 05:58:51;;;;;;;12.20;10.60;;;;;;;19.76;77.76;100093.25;1823217;78;21346;-88
2022/06/24 06:01:18;;;;;;;12.23;10.40;;;;;;;19.76;77.80;100092.75;1822239;78;20923;-89
2022/06/24 06:03:47;;;;;;;11.97;10.93;;;;;;;19.79;77.47;100092.94;1821979;78;20876;-88
2022/06/24 06:06:13;;;;;;;11.22;10.15;;;;;;;19.73;77.21;100087.77;1823882;78;20871;-90
2022/06/24 06:08:40;;;;;;;12.07;10.90;;;;;;;19.67;77.27;100089.23;1826312;78;20899;-88
2022/06/24 06:11:20;;;;;;;11.68;10.58;;;;;;;19.65;77.33;100095.69;1825559;78;21445;-89
2022/06/24 06:13:51;;;;;;;12.50;11.30;;;;;;;19.62;77.36;100097.36;1826161;78;20883;-88
2022/06/24 06:16:17;;;;;;;12.88;11.78;;;;;;;19.59;77.75;100094.53;1825739;78;21216;-88
2022/06/24 06:18:44;;;;;;;13.78;12.37;;;;;;;19.58;78.20;100090.19;1826322;78;20859;-88
2022/06/24 06:21:11;;;;;;;13.72;12.07;;;;;;;19.59;78.15;100093.20;1826001;78;20840;-88
2022/06/24 06:23:40;;;;;;;13.00;11.70;;;;;;;19.59;77.88;100092.38;1826211;78;20927;-89
2022/06/24 06:26:08;;;;;;;14.78;11.97;;;;;;;19.53;77.89;100091.70;1826006;78;20895;-88
2022/06/24 06:28:37;;;;;;;12.63;11.40;;;;;;;19.53;77.95;100090.37;1825730;78;21303;-88
2022/06/24 06:31:03;;;;;;;12.35;11.25;;;;;;;19.49;78.14;100100.48;1825291;78;21334;-87
2022/06/24 06:33:31;;;;;;;13.55;12.25;;;;;;;19.49;78.52;100106.31;1825764;78;20891;-86
2022/06/24 06:36:05;;;;;;;14.05;10.82;;;;;;;19.49;78.52;100111.63;1825620;78;21384;-86
2022/06/24 06:38:32;;;;;;;13.60;11.75;;;;;;;19.49;78.45;100121.77;1825846;78;20848;-88
2022/06/24 06:40:59;;;;;;;13.25;11.25;;;;;;;19.46;78.40;100112.28;1825959;78;21435;-88
2022/06/24 06:43:26;;;;;;;11.97;10.78;;;;;;;19.46;78.22;100118.94;1825883;78;21043;-88
2022/06/24 06:45:53;;;;;;;13.58;10.78;;;;;;;19.46;78.15;100118.94;1826234;78;21373;-87
2022/06/24 06:48:20;;;;;;;12.63;10.48;;;;;;;19.46;78.16;100118.11;1826650;78;20931;-86
2022/06/24 06:50:47;;;;;;;11.73;10.70;;;;;;;19.43;78.26;100119.27;1826571;78;21393;-87
2022/06/24 06:53:14;;;;;;;12.00;10.90;;;;;;;19.45;78.46;100108.45;1825965;78;21100;-86
2022/06/24 06:55:40;;;;;;;13.30;10.55;;;;;;;19.50;78.74;100111.48;1825672;78;20860;-87
2022/06/24 06:58:07;;;;;;;12.00;10.90;;;;;;;19.59;78.62;100113.16;1825894;78;20927;-87
2022/06/24 07:00:33;;;;;;;13.22;10.95;;;;;;;19.71;78.69;100104.89;1826615;78;20856;-86
2022/06/24 07:03:02;;;;;;;12.13;10.98;;;;;;;19.83;78.45;100093.77;1799119;78;20864;-85
2022/06/24 07:05:31;;;;;;;11.80;10.70;;;;;;;19.94;77.82;100090.44;1825403;78;21203;-89
2022/06/24 07:07:59;;;;;;;11.55;10.45;;;;;;;20.04;77.50;100080.47;1825703;78;20879;-89
2022/06/24 07:10:25;;;;;;;12.98;11.10;;;;;;;20.13;77.27;100078.13;1825715;78;20995;-88
2022/06/24 07:12:52;;;;;;;11.53;10.38;;;;;;;20.23;76.95;100081.46;1825450;78;20838;-87
2022/06/24 07:15:19;;;;;;;10.93;10.03;;;;;;;20.34;76.71;100094.08;1825809;78;20946;-86
2022/06/24 07:17:46;;;;;;;13.62;11.08;;;;;;;20.43;76.09;100094.39;1827015;78;21519;-88
2022/06/24 07:20:15;;;;;;;11.40;10.28;;;;;;;20.52;75.73;100101.40;1826101;78;20872;-88
2022/06/24 07:22:41;;;;;;;12.47;9.78;;;;;;;20.70;75.30;100111.87;1825953;78;20844;-88
2022/06/24 07:25:08;;;;;;;11.08;10.08;;;;;;;20.89;75.09;100110.64;1825398;78;20931;-88
2022/06/24 07:27:35;;;;;;;11.55;10.53;;;;;;;21.11;75.09;100107.22;1825756;78;20919;-88
2022/06/24 07:30:05;;;;;;;12.37;10.28;;;;;;;21.30;73.87;100107.83;1825787;78;21151;-88
2022/06/24 07:32:32;;;;;;;9.20;8.40;;;;;;;21.53;73.14;100114.55;1826139;78;20867;-89
2022/06/24 07:35:01;;;;;;;10.50;8.03;;;;;;;21.88;72.66;100111.00;1827376;78;20887;-89
2022/06/24 07:37:29;;;;;;;11.10;9.70;;;;;;;22.32;71.74;100114.31;1828115;78;20931;-87
2022/06/24 07:39:56;;;;;;;9.93;8.48;;;;;;;22.81;69.66;100109.84;1800859;77;20974;-89
2022/06/24 07:42:22;;;;;;;12.43;8.98;;;;;;;23.12;68.40;100111.48;1827829;77;21200;-89
2022/06/24 07:44:49;;;;;;;8.80;8.13;;;;;;;23.33;66.89;100114.74;1826639;78;20927;-88
2022/06/24 07:47:16;;;;;;;14.25;9.00;;;;;;;23.38;65.11;100117.16;1826604;78;20955;-87
2022/06/24 07:49:43;;;;;;;10.55;9.55;;;;;;;23.28;64.78;100109.95;1826526;78;20911;-89
2022/06/24 07:52:10;;;;;;;9.40;8.50;;;;;;;23.14;64.56;100106.78;1826503;78;20879;-89
2022/06/24 07:54:38;;;;;;;10.32;9.35;;;;;;;23.08;65.44;100102.20;1825670;78;21173;-89
2022/06/24 07:57:07;;;;;;;9.93;9.05;;;;;;;23.13;65.74;100093.92;1826351;78;20848;-89
2022/06/24 07:59:36;;;;;;;12.10;11.00;;;;;;;23.25;65.38;100082.73;1826051;78;20904;-89
2022/06/24 08:02:06;;;;;;;9.10;8.28;;;;;;;23.54;64.72;100079.99;1825968;78;21373;-89
2022/06/24 08:04:33;;;;;;;7.65;7.00;;;;;;;24.02;65.11;100078.61;1826038;78;21390;-88
2022/06/24 08:06:59;;;;;;;8.78;8.10;;;;;;;24.68;64.04;100076.42;1826284;78;21866;-88
2022/06/24 08:09:30;;;;;;;7.67;6.95;;;;;;;25.35;61.73;100079.43;1825958;78;20998;-90
2022/06/24 08:11:56;;;;;;;11.73;7.03;;;;;;;25.81;59.27;100075.98;1826130;78;20978;-88
2022/06/24 08:14:23;;;;;;;6.17;5.50;;;;;;;26.08;57.93;100071.50;1825883;78;20938;-89
2022/06/24 08:16:50;;;;;;;8.10;6.55;;;;;;;26.17;56.38;100073.47;1826233;78;20927;-89
2022/06/24 08:19:18;;;;;;;7.08;6.47;;;;;;;26.14;55.52;100064.45;1824165;78;20927;-89
2022/06/24 08:21:46;;;;;;;8.03;7.33;;;;;;;26.04;55.16;100063.02;1826130;78;21373;-87
2022/06/24 08:24:14;;;;;;;7.53;6.60;;;;;;;25.97;55.55;100062.72;1825988;78;21417;-86
2022/06/24 08:26:43;;;;;;;8.20;7.42;;;;;;;25.85;55.26;100058.42;1826215;78;20966;-89
2022/06/24 08:29:11;;;;;;;7.20;6.70;;;;;;;25.70;55.65;100057.80;1798535;78;20931;-89
2022/06/24 08:31:38;;;;;;;8.25;7.45;;;;;;;25.67;56.27;100060.38;1826398;78;21316;-87
2022/06/24 08:34:07;;;;;;;8.93;7.25;;;;;;;25.59;56.59;100053.35;1826361;78;21487;-87
2022/06/24 08:36:36;;;;;;;8.50;7.60;;;;;;;25.50;56.49;100057.27;1826805;78;20892;-89
2022/06/24 08:39:04;;;;;;;7.12;6.62;;;;;;;25.38;56.66;100062.91;1826997;78;20915;-89
2022/06/24 08:41:30;;;;;;;7.90;7.30;;;;;;;25.26;57.04;100065.85;1826778;78;20879;-89
2022/06/24 08:43:58;;;;;;;7.83;7.22;;;;;;;25.11;57.29;100063.31;1825829;78;21333;-88
2022/06/24 08:46:25;;;;;;;7.78;7.15;;;;;;;24.92;57.61;100056.33;1827638;78;20907;-87
2022/06/24 08:48:58;;;;;;;8.63;7.67;;;;;;;24.81;58.50;100060.89;1828358;78;20914;-88
2022/06/24 08:51:27;;;;;;;11.12;10.05;;;;;;;24.74;58.62;100061.38;1820262;78;20880;-90
2022/06/24 08:53:57;;;;;;;10.05;9.05;;;;;;;24.57;58.69;100055.02;1827789;78;20907;-89
2022/06/24 08:56:26;;;;;;;12.35;11.25;;;;;;;24.42;59.02;100054.27;1799731;78;21154;-89
2022/06/24 08:58:54;;;;;;;12.70;11.48;;;;;;;24.33;59.31;100040.19;1826237;78;20887;-88
2022/06/24 09:01:21;;;;;;;14.05;12.28;;;;;;;24.26;59.25;100032.63;1801340;78;20864;-90
2022/06/24 09:03:50;;;;;;;8.03;7.33;;;;;;;24.25;59.06;100032.81;1822573;78;20923;-89
2022/06/24 09:06:20;;;;;;;9.60;7.70;;;;;;;24.25;58.99;100032.81;1825606;78;20935;-90
2022/06/24 09:08:51;;;;;;;9.33;7.60;;;;;;;24.28;59.31;100027.05;1822669;78;21182;-89
2022/06/24 09:11:18;;;;;;;7.87;7.25;;;;;;;24.34;59.52;100020.91;1823041;78;20923;-89
2022/06/24 09:13:55;;;;;;;9.20;7.70;;;;;;;24.36;58.85;100017.52;1822568;78;21393;-88
2022/06/24 09:16:25;;;;;;;8.85;8.08;;;;;;;24.38;59.21;100020.84;1790728;78;21402;-88
2022/06/24 09:18:57;;;;;;;7.58;5.85;;;;;;;24.41;59.14;100013.73;1822274;78;20919;-88
2022/06/24 09:21:29;;;;;;;10.82;7.25;;;;;;;24.49;59.15;100012.80;1822515;78;21067;-89
2022/06/24 09:23:59;;;;;;;7.75;7.12;;;;;;;24.55;58.48;100024.89;1822437;78;21002;-88
2022/06/24 09:26:40;;;;;;;7.78;6.85;;;;;;;24.57;58.38;100037.59;1822291;78;20963;-88
2022/06/24 09:29:13;;;;;;;8.78;7.22;;;;;;;24.58;58.25;100038.41;1822305;78;21037;-88
2022/06/24 09:31:40;;;;;;;8.88;7.45;;;;;;;24.53;58.18;100032.82;1822921;78;20880;-89
2022/06/24 09:34:14;;;;;;;8.78;7.50;;;;;;;24.56;58.75;100023.03;1822517;78;21851;-88
2022/06/24 09:36:45;;;;;;;8.58;7.72;;;;;;;24.61;58.42;100015.21;1822732;78;20879;-87
2022/06/24 09:39:14;;;;;;;9.88;6.92;;;;;;;24.73;58.81;100027.04;1822507;78;20895;-88
2022/06/24 09:41:53;;;;;;;7.80;6.87;;;;;;;24.82;58.87;100023.16;1821885;78;20919;-89
2022/06/24 09:44:21;;;;;;;7.53;6.72;;;;;;;24.98;59.07;100019.81;1822014;78;20955;-88
2022/06/24 09:46:48;;;;;;;7.03;6.47;;;;;;;25.11;59.01;100032.45;1822005;78;21256;-89
2022/06/24 09:49:17;;;;;;;7.37;6.67;;;;;;;25.20;58.49;100032.09;1822069;78;20895;-90
2022/06/24 09:51:44;;;;;;;8.25;7.45;;;;;;;25.30;58.19;100034.89;1822032;78;21377;-89
2022/06/24 09:54:17;;;;;;;8.73;8.13;;;;;;;25.32;57.69;100034.18;1822174;78;20892;-90
2022/06/24 09:56:46;;;;;;;11.90;7.05;;;;;;;25.33;57.43;100035.33;1822226;78;21425;-90
2022/06/24 10:01:59;;;;;;;8.13;7.42;;;;;;;25.28;57.39;100037.80;1821916;78;20880;-87
2022/06/24 10:04:26;;;;;;;9.08;8.40;;;;;;;25.15;57.56;100033.71;1822180;78;20943;-91
2022/06/24 10:06:52;;;;;;;8.78;7.55;;;;;;;25.04;58.26;100035.11;1822579;78;20887;-89
2022/06/24 10:09:28;;;;;;;11.48;9.75;;;;;;;24.93;58.80;100033.01;1824902;78;20931;-87
2022/06/24 10:11:54;;;;;;;3.95;3.45;;;;;;;24.74;59.36;100043.95;1825133;78;21167;-86
2022/06/24 10:14:20;;;;;;;6.85;4.15;;;;;;;24.33;59.29;100058.13;1825716;78;20875;-85
2022/06/24 10:16:48;;;;;;;6.67;4.20;;;;;;;23.71;60.86;100044.41;1825387;78;20919;-85
2022/06/24 10:19:14;;;;;;;9.23;4.95;;;;;;;23.28;62.41;100042.24;1824683;78;20982;-85
2022/06/24 10:21:41;;;;;;;6.95;5.30;;;;;;;22.93;63.01;100060.20;1797915;78;20888;-84
2022/06/24 10:24:12;;;;;;;8.40;5.47;;;;;;;22.59;64.59;100075.48;1825263;78;21188;-85
2022/06/24 10:26:41;;;;;;;7.53;5.35;;;;;;;22.32;66.39;100075.09;1825177;78;20900;-83
2022/06/24 10:29:16;;;;;;;8.35;6.30;;;;;;;22.09;68.36;100068.41;1825278;78;20907;-83
2022/06/24 10:31:54;;;;;;;8.33;7.05;;;;;;;21.92;69.43;100059.73;1824921;78;20880;-80
2022/06/24 10:34:29;;;;;;;7.55;6.85;;;;;;;21.79;70.63;100050.65;1827635;78;20880;-84
2022/06/24 10:37:23;;;;;;;11.63;6.90;;;;;;;21.70;72.42;100057.92;1799991;78;21134;-82
2022/06/24 10:39:54;;;;;;;;;;;;;;;21.62;72.58;100053.45;1830950;78;20883;-84
2022/06/24 10:42:21;;;;;;;7.35;6.65;;;;;;;21.57;73.95;100046.49;1828111;78;20109;-86
2022/06/24 10:45:01;;;;;;;7.53;6.83;;;;;;;21.50;73.94;100046.38;1828324;78;21067;-87
2022/06/24 10:47:41;;;;;;;7.70;6.90;;;;;;;21.47;74.34;100054.71;1828255;78;20938;-84
2022/06/24 10:50:14;;;;;;;7.28;6.75;;;;;;;21.42;74.04;100046.41;1828244;78;21235;-85
2022/06/24 10:52:55;;;;;;;8.33;7.20;;;;;;;21.37;74.30;100037.27;1828107;77;20935;-87
2022/06/24 10:55:32;;;;;;;9.05;8.15;;;;;;;21.36;75.25;100047.08;1828066;78;20840;-87
2022/06/24 10:58:03;;;;;;;8.83;7.92;;;;;;;21.36;75.69;100048.42;1826639;78;20990;-88
2022/06/24 11:00:48;;;;;;;8.93;8.13;;;;;;;21.40;76.71;100046.23;1827028;78;20880;-87
2022/06/24 11:03:21;;;;;;;10.10;9.25;;;;;;;21.42;76.80;100051.75;1827434;78;21134;-87
2022/06/24 11:05:49;;;;;;;10.13;9.10;;;;;;;21.42;76.69;100053.09;1827828;78;20884;-89
2022/06/24 11:08:21;;;;;;;9.48;8.63;;;;;;;21.39;76.16;100058.75;1826282;78;21523;-87
2022/06/24 11:10:49;;;;;;;11.35;10.35;;;;;;;21.37;75.88;100062.61;1826607;78;20951;-87
2022/06/24 11:13:16;;;;;;;14.58;11.10;;;;;;;21.32;76.59;100065.77;1827778;78;20848;-88
2022/06/24 11:15:49;;;;;;;11.80;10.70;;;;;;;21.29;77.00;100072.30;1828482;77;21109;-88
2022/06/24 11:18:25;;;;;;;12.45;11.35;;;;;;;21.24;77.35;100065.84;1828038;78;21045;-88
2022/06/24 11:21:04;;;;;;;13.25;11.95;;;;;;;21.15;77.68;100066.38;1828240;78;20899;-87
2022/06/24 11:23:33;;;;;;;11.95;10.15;;;;;;;21.12;78.03;100065.38;1827201;78;20911;-88
2022/06/24 11:26:14;;;;;;;13.25;9.50;;;;;;;21.03;77.89;100075.77;1826680;78;20978;-87
2022/06/24 11:28:45;;;;;;;9.73;8.55;;;;;;;20.92;77.14;100077.00;1823080;77;21919;-87
2022/06/24 11:31:21;;;;;;;8.28;7.58;;;;;;;20.84;76.31;100068.52;1825867;77;21310;-86
2022/06/24 11:34:09;;;;;;;8.10;7.42;;;;;;;;;;1826205;78;20935;-85
2022/06/24 11:36:38;;;;;;;6.53;6.03;;;;;;;20.50;75.15;100075.42;1825741;77;20958;-85